sensor_id;sensor_type;location;lat;lon;timestamp;P1;durP1;ratioP1;P2;durP2;ratioP2
12363;SDS011;6246;50.826;4.712;2023-04-03T00:01:06;2.40;;;2.20;;
12363;SDS011;6246;50.826;4.712;2023-04-03T00:03:32;2.33;;;2.03;;
12363;SDS011;6246;50.826;4.712;2023-04-03T00:05:58;3.10;;;1.97;;
12363;SDS011;6246;50.826;4.712;2023-04-03T00:08:25;2.40;;;2.00;;
12363;SDS011;6246;50.826;4.712;2023-04-03T00:10:51;2.30;;;2.10;;
12363;SDS011;6246;50.826;4.712;2023-04-03T00:13:17;2.43;;;2.23;;
12363;SDS011;6246;50.826;4.712;2023-04-03T00:15:43;1.90;;;1.80;;
12363;SDS011;6246;50.826;4.712;2023-04-03T00:18:09;2.40;;;2.20;;
12363;SDS011;6246;50.826;4.712;2023-04-03T00:20:35;2.47;;;2.27;;
12363;SDS011;6246;50.826;4.712;2023-04-03T00:23:02;2.30;;;2.10;;
12363;SDS011;6246;50.826;4.712;2023-04-03T00:25:28;2.33;;;2.13;;
12363;SDS011;6246;50.826;4.712;2023-04-03T00:27:54;2.20;;;2.10;;
12363;SDS011;6246;50.826;4.712;2023-04-03T00:30:20;2.13;;;2.00;;
12363;SDS011;6246;50.826;4.712;2023-04-03T00:32:47;2.37;;;1.90;;
12363;SDS011;6246;50.826;4.712;2023-04-03T00:35:13;2.47;;;2.27;;
12363;SDS011;6246;50.826;4.712;2023-04-03T00:37:41;4.83;;;2.50;;
12363;SDS011;6246;50.826;4.712;2023-04-03T00:40:07;2.27;;;2.07;;
12363;SDS011;6246;50.826;4.712;2023-04-03T00:42:35;2.10;;;2.00;;
12363;SDS011;6246;50.826;4.712;2023-04-03T00:47:27;2.00;;;1.90;;
12363;SDS011;6246;50.826;4.712;2023-04-03T00:49:53;2.10;;;1.80;;
12363;SDS011;6246;50.826;4.712;2023-04-03T00:52:21;1.93;;;1.80;;
12363;SDS011;6246;50.826;4.712;2023-04-03T00:54:49;2.50;;;2.30;;
12363;SDS011;6246;50.826;4.712;2023-04-03T00:57:15;2.60;;;2.40;;
12363;SDS011;6246;50.826;4.712;2023-04-03T00:59:43;2.10;;;1.90;;
12363;SDS011;6246;50.826;4.712;2023-04-03T01:02:10;1.80;;;1.70;;
12363;SDS011;6246;50.826;4.712;2023-04-03T01:04:37;2.30;;;2.00;;
12363;SDS011;6246;50.826;4.712;2023-04-03T01:07:07;1.93;;;1.83;;
12363;SDS011;6246;50.826;4.712;2023-04-03T01:09:33;1.80;;;1.70;;
12363;SDS011;6246;50.826;4.712;2023-04-03T01:12:13;2.57;;;2.20;;
12363;SDS011;6246;50.826;4.712;2023-04-03T01:14:41;2.57;;;1.77;;
12363;SDS011;6246;50.826;4.712;2023-04-03T01:19:56;2.30;;;2.10;;
12363;SDS011;6246;50.826;4.712;2023-04-03T01:22:27;1.80;;;1.70;;
12363;SDS011;6246;50.826;4.712;2023-04-03T01:24:56;2.43;;;2.23;;
12363;SDS011;6246;50.826;4.712;2023-04-03T01:27:22;2.00;;;1.83;;
12363;SDS011;6246;50.826;4.712;2023-04-03T01:29:48;1.87;;;1.77;;
12363;SDS011;6246;50.826;4.712;2023-04-03T01:32:14;2.03;;;1.93;;
12363;SDS011;6246;50.826;4.712;2023-04-03T01:34:40;2.13;;;1.97;;
12363;SDS011;6246;50.826;4.712;2023-04-03T01:37:06;2.10;;;1.90;;
12363;SDS011;6246;50.826;4.712;2023-04-03T01:39:32;2.27;;;2.07;;
12363;SDS011;6246;50.826;4.712;2023-04-03T01:41:58;2.07;;;1.97;;
12363;SDS011;6246;50.826;4.712;2023-04-03T01:44:24;2.23;;;2.13;;
12363;SDS011;6246;50.826;4.712;2023-04-03T01:46:50;2.47;;;2.20;;
12363;SDS011;6246;50.826;4.712;2023-04-03T01:49:16;1.53;;;1.43;;
12363;SDS011;6246;50.826;4.712;2023-04-03T01:51:42;2.50;;;2.30;;
12363;SDS011;6246;50.826;4.712;2023-04-03T01:54:08;2.10;;;1.93;;
12363;SDS011;6246;50.826;4.712;2023-04-03T01:56:35;2.03;;;1.83;;
12363;SDS011;6246;50.826;4.712;2023-04-03T01:59:01;2.10;;;1.93;;
12363;SDS011;6246;50.826;4.712;2023-04-03T02:01:27;2.03;;;1.83;;
12363;SDS011;6246;50.826;4.712;2023-04-03T02:03:53;2.47;;;2.10;;
12363;SDS011;6246;50.826;4.712;2023-04-03T02:06:19;2.00;;;1.90;;
12363;SDS011;6246;50.826;4.712;2023-04-03T02:08:45;1.83;;;1.70;;
12363;SDS011;6246;50.826;4.712;2023-04-03T02:11:11;2.00;;;1.80;;
12363;SDS011;6246;50.826;4.712;2023-04-03T02:13:37;2.47;;;1.97;;
12363;SDS011;6246;50.826;4.712;2023-04-03T02:16:10;2.40;;;1.83;;
12363;SDS011;6246;50.826;4.712;2023-04-03T02:18:37;1.80;;;1.70;;
12363;SDS011;6246;50.826;4.712;2023-04-03T02:21:03;3.77;;;1.77;;
12363;SDS011;6246;50.826;4.712;2023-04-03T02:23:29;2.33;;;1.93;;
12363;SDS011;6246;50.826;4.712;2023-04-03T02:26:04;1.80;;;1.70;;
12363;SDS011;6246;50.826;4.712;2023-04-03T02:28:31;2.10;;;1.90;;
12363;SDS011;6246;50.826;4.712;2023-04-03T02:30:57;3.07;;;2.17;;
12363;SDS011;6246;50.826;4.712;2023-04-03T02:33:23;2.10;;;2.00;;
12363;SDS011;6246;50.826;4.712;2023-04-03T02:35:52;1.87;;;1.67;;
12363;SDS011;6246;50.826;4.712;2023-04-03T02:38:18;1.73;;;1.53;;
12363;SDS011;6246;50.826;4.712;2023-04-03T02:40:44;3.43;;;1.90;;
12363;SDS011;6246;50.826;4.712;2023-04-03T02:43:10;1.67;;;1.50;;
12363;SDS011;6246;50.826;4.712;2023-04-03T02:45:36;1.87;;;1.77;;
12363;SDS011;6246;50.826;4.712;2023-04-03T02:48:03;1.80;;;1.70;;
12363;SDS011;6246;50.826;4.712;2023-04-03T02:50:29;2.23;;;2.03;;
12363;SDS011;6246;50.826;4.712;2023-04-03T02:52:55;2.30;;;1.80;;
12363;SDS011;6246;50.826;4.712;2023-04-03T02:55:21;1.77;;;1.63;;
12363;SDS011;6246;50.826;4.712;2023-04-03T02:57:47;1.63;;;1.53;;
12363;SDS011;6246;50.826;4.712;2023-04-03T03:00:13;1.90;;;1.53;;
12363;SDS011;6246;50.826;4.712;2023-04-03T03:02:39;1.97;;;1.77;;
12363;SDS011;6246;50.826;4.712;2023-04-03T03:05:06;2.43;;;1.90;;
12363;SDS011;6246;50.826;4.712;2023-04-03T03:07:33;1.57;;;1.47;;
12363;SDS011;6246;50.826;4.712;2023-04-03T03:09:59;1.73;;;1.63;;
12363;SDS011;6246;50.826;4.712;2023-04-03T03:12:25;1.70;;;1.60;;
12363;SDS011;6246;50.826;4.712;2023-04-03T03:14:51;1.60;;;1.50;;
12363;SDS011;6246;50.826;4.712;2023-04-03T03:17:17;2.83;;;1.80;;
12363;SDS011;6246;50.826;4.712;2023-04-03T03:19:43;1.80;;;1.70;;
12363;SDS011;6246;50.826;4.712;2023-04-03T03:22:10;1.70;;;1.60;;
12363;SDS011;6246;50.826;4.712;2023-04-03T03:24:36;1.70;;;1.60;;
12363;SDS011;6246;50.826;4.712;2023-04-03T03:27:02;1.80;;;1.67;;
12363;SDS011;6246;50.826;4.712;2023-04-03T03:29:29;1.67;;;1.57;;
12363;SDS011;6246;50.826;4.712;2023-04-03T03:31:55;1.40;;;1.30;;
12363;SDS011;6246;50.826;4.712;2023-04-03T03:34:21;1.50;;;1.40;;
12363;SDS011;6246;50.826;4.712;2023-04-03T03:36:47;2.20;;;2.00;;
12363;SDS011;6246;50.826;4.712;2023-04-03T03:39:13;1.83;;;1.67;;
12363;SDS011;6246;50.826;4.712;2023-04-03T03:41:39;2.20;;;1.90;;
12363;SDS011;6246;50.826;4.712;2023-04-03T03:44:05;2.20;;;1.77;;
12363;SDS011;6246;50.826;4.712;2023-04-03T03:46:31;2.00;;;1.90;;
12363;SDS011;6246;50.826;4.712;2023-04-03T03:48:57;1.60;;;1.50;;
12363;SDS011;6246;50.826;4.712;2023-04-03T03:51:23;2.30;;;1.70;;
12363;SDS011;6246;50.826;4.712;2023-04-03T03:53:49;2.07;;;1.70;;
12363;SDS011;6246;50.826;4.712;2023-04-03T03:56:15;1.93;;;1.83;;
12363;SDS011;6246;50.826;4.712;2023-04-03T03:58:41;3.03;;;1.70;;
12363;SDS011;6246;50.826;4.712;2023-04-03T04:01:07;1.50;;;1.40;;
12363;SDS011;6246;50.826;4.712;2023-04-03T04:03:34;1.60;;;1.50;;
12363;SDS011;6246;50.826;4.712;2023-04-03T04:06:00;1.50;;;1.20;;
12363;SDS011;6246;50.826;4.712;2023-04-03T04:08:26;1.40;;;1.30;;
12363;SDS011;6246;50.826;4.712;2023-04-03T04:10:52;1.60;;;1.50;;
12363;SDS011;6246;50.826;4.712;2023-04-03T04:13:18;1.73;;;1.60;;
12363;SDS011;6246;50.826;4.712;2023-04-03T04:15:44;1.67;;;1.57;;
12363;SDS011;6246;50.826;4.712;2023-04-03T04:18:10;2.10;;;1.70;;
12363;SDS011;6246;50.826;4.712;2023-04-03T04:20:37;1.53;;;1.40;;
12363;SDS011;6246;50.826;4.712;2023-04-03T04:23:03;1.70;;;1.60;;
12363;SDS011;6246;50.826;4.712;2023-04-03T04:25:29;2.40;;;1.93;;
12363;SDS011;6246;50.826;4.712;2023-04-03T04:27:55;1.60;;;1.50;;
12363;SDS011;6246;50.826;4.712;2023-04-03T04:30:21;1.53;;;1.43;;
12363;SDS011;6246;50.826;4.712;2023-04-03T04:32:47;2.00;;;1.90;;
12363;SDS011;6246;50.826;4.712;2023-04-03T04:35:14;1.90;;;1.80;;
12363;SDS011;6246;50.826;4.712;2023-04-03T04:37:40;1.30;;;1.30;;
12363;SDS011;6246;50.826;4.712;2023-04-03T04:40:06;2.50;;;2.10;;
12363;SDS011;6246;50.826;4.712;2023-04-03T04:42:32;1.83;;;1.63;;
12363;SDS011;6246;50.826;4.712;2023-04-03T04:44:58;1.83;;;1.63;;
12363;SDS011;6246;50.826;4.712;2023-04-03T04:47:24;1.43;;;1.33;;
12363;SDS011;6246;50.826;4.712;2023-04-03T04:49:50;1.40;;;1.30;;
12363;SDS011;6246;50.826;4.712;2023-04-03T04:52:16;2.30;;;1.80;;
12363;SDS011;6246;50.826;4.712;2023-04-03T04:54:42;1.97;;;1.63;;
12363;SDS011;6246;50.826;4.712;2023-04-03T04:57:08;2.00;;;1.30;;
12363;SDS011;6246;50.826;4.712;2023-04-03T04:59:35;2.50;;;1.53;;
12363;SDS011;6246;50.826;4.712;2023-04-03T05:02:01;1.77;;;1.43;;
12363;SDS011;6246;50.826;4.712;2023-04-03T05:04:27;2.03;;;1.83;;
12363;SDS011;6246;50.826;4.712;2023-04-03T05:06:53;1.70;;;1.50;;
12363;SDS011;6246;50.826;4.712;2023-04-03T05:09:20;2.13;;;1.77;;
12363;SDS011;6246;50.826;4.712;2023-04-03T05:11:46;1.67;;;1.57;;
12363;SDS011;6246;50.826;4.712;2023-04-03T05:14:12;1.93;;;1.83;;
12363;SDS011;6246;50.826;4.712;2023-04-03T05:16:38;1.60;;;1.50;;
12363;SDS011;6246;50.826;4.712;2023-04-03T05:19:04;1.30;;;1.20;;
12363;SDS011;6246;50.826;4.712;2023-04-03T05:21:30;2.10;;;1.97;;
12363;SDS011;6246;50.826;4.712;2023-04-03T05:24:00;1.33;;;1.30;;
12363;SDS011;6246;50.826;4.712;2023-04-03T05:26:28;1.77;;;1.63;;
12363;SDS011;6246;50.826;4.712;2023-04-03T05:28:54;1.63;;;1.53;;
12363;SDS011;6246;50.826;4.712;2023-04-03T05:31:20;1.33;;;1.23;;
12363;SDS011;6246;50.826;4.712;2023-04-03T05:33:46;1.93;;;1.60;;
12363;SDS011;6246;50.826;4.712;2023-04-03T05:36:12;1.60;;;1.50;;
12363;SDS011;6246;50.826;4.712;2023-04-03T05:38:39;1.77;;;1.50;;
12363;SDS011;6246;50.826;4.712;2023-04-03T05:41:05;1.53;;;1.43;;
12363;SDS011;6246;50.826;4.712;2023-04-03T05:43:31;2.03;;;1.90;;
12363;SDS011;6246;50.826;4.712;2023-04-03T05:45:59;2.10;;;1.63;;
12363;SDS011;6246;50.826;4.712;2023-04-03T05:48:25;1.50;;;1.40;;
12363;SDS011;6246;50.826;4.712;2023-04-03T05:50:51;1.27;;;1.27;;
12363;SDS011;6246;50.826;4.712;2023-04-03T05:53:21;1.50;;;1.40;;
12363;SDS011;6246;50.826;4.712;2023-04-03T05:55:48;1.80;;;1.70;;
12363;SDS011;6246;50.826;4.712;2023-04-03T05:58:14;1.97;;;1.30;;
12363;SDS011;6246;50.826;4.712;2023-04-03T06:00:40;1.60;;;1.50;;
12363;SDS011;6246;50.826;4.712;2023-04-03T06:03:06;1.60;;;1.50;;
12363;SDS011;6246;50.826;4.712;2023-04-03T06:05:32;1.57;;;1.47;;
12363;SDS011;6246;50.826;4.712;2023-04-03T06:07:58;1.87;;;1.30;;
12363;SDS011;6246;50.826;4.712;2023-04-03T06:10:24;1.70;;;1.60;;
12363;SDS011;6246;50.826;4.712;2023-04-03T06:12:50;2.17;;;1.97;;
12363;SDS011;6246;50.826;4.712;2023-04-03T06:15:16;1.67;;;1.57;;
12363;SDS011;6246;50.826;4.712;2023-04-03T06:17:42;1.97;;;1.43;;
12363;SDS011;6246;50.826;4.712;2023-04-03T06:20:09;1.50;;;1.40;;
12363;SDS011;6246;50.826;4.712;2023-04-03T06:22:35;1.70;;;1.60;;
12363;SDS011;6246;50.826;4.712;2023-04-03T06:25:01;1.77;;;1.50;;
12363;SDS011;6246;50.826;4.712;2023-04-03T06:27:27;1.60;;;1.50;;
12363;SDS011;6246;50.826;4.712;2023-04-03T06:29:53;1.50;;;1.40;;
12363;SDS011;6246;50.826;4.712;2023-04-03T06:32:19;2.23;;;2.03;;
12363;SDS011;6246;50.826;4.712;2023-04-03T06:34:45;1.50;;;1.40;;
12363;SDS011;6246;50.826;4.712;2023-04-03T06:37:15;1.57;;;1.47;;
12363;SDS011;6246;50.826;4.712;2023-04-03T06:39:42;1.70;;;1.60;;
12363;SDS011;6246;50.826;4.712;2023-04-03T06:42:08;2.07;;;1.93;;
12363;SDS011;6246;50.826;4.712;2023-04-03T06:44:34;2.17;;;1.97;;
12363;SDS011;6246;50.826;4.712;2023-04-03T06:47:00;1.73;;;1.63;;
12363;SDS011;6246;50.826;4.712;2023-04-03T06:49:26;1.83;;;1.73;;
12363;SDS011;6246;50.826;4.712;2023-04-03T06:51:53;1.50;;;1.40;;
12363;SDS011;6246;50.826;4.712;2023-04-03T06:54:20;2.13;;;2.03;;
12363;SDS011;6246;50.826;4.712;2023-04-03T06:56:46;1.60;;;1.50;;
12363;SDS011;6246;50.826;4.712;2023-04-03T06:59:12;2.10;;;1.90;;
12363;SDS011;6246;50.826;4.712;2023-04-03T07:01:39;1.90;;;1.80;;
12363;SDS011;6246;50.826;4.712;2023-04-03T07:04:06;2.17;;;2.07;;
12363;SDS011;6246;50.826;4.712;2023-04-03T07:06:32;2.20;;;2.00;;
12363;SDS011;6246;50.826;4.712;2023-04-03T07:08:58;2.20;;;2.10;;
12363;SDS011;6246;50.826;4.712;2023-04-03T07:11:25;2.37;;;2.17;;
12363;SDS011;6246;50.826;4.712;2023-04-03T07:13:51;2.00;;;1.90;;
12363;SDS011;6246;50.826;4.712;2023-04-03T07:16:18;2.70;;;2.50;;
12363;SDS011;6246;50.826;4.712;2023-04-03T07:18:44;1.90;;;1.80;;
12363;SDS011;6246;50.826;4.712;2023-04-03T07:21:10;2.33;;;2.07;;
12363;SDS011;6246;50.826;4.712;2023-04-03T07:23:37;1.87;;;1.77;;
12363;SDS011;6246;50.826;4.712;2023-04-03T07:26:03;2.57;;;2.20;;
12363;SDS011;6246;50.826;4.712;2023-04-03T07:28:29;2.40;;;2.20;;
12363;SDS011;6246;50.826;4.712;2023-04-03T07:31:10;2.17;;;2.07;;
12363;SDS011;6246;50.826;4.712;2023-04-03T07:33:38;2.40;;;2.20;;
12363;SDS011;6246;50.826;4.712;2023-04-03T07:36:05;2.53;;;2.33;;
12363;SDS011;6246;50.826;4.712;2023-04-03T07:38:35;3.10;;;2.43;;
12363;SDS011;6246;50.826;4.712;2023-04-03T07:41:01;2.70;;;2.50;;
12363;SDS011;6246;50.826;4.712;2023-04-03T07:43:28;2.50;;;2.30;;
12363;SDS011;6246;50.826;4.712;2023-04-03T07:45:54;2.00;;;1.90;;
12363;SDS011;6246;50.826;4.712;2023-04-03T07:48:24;2.30;;;2.10;;
12363;SDS011;6246;50.826;4.712;2023-04-03T07:50:50;2.93;;;2.30;;
12363;SDS011;6246;50.826;4.712;2023-04-03T07:53:17;2.33;;;2.13;;
12363;SDS011;6246;50.826;4.712;2023-04-03T07:55:46;2.60;;;2.40;;
12363;SDS011;6246;50.826;4.712;2023-04-03T07:58:13;4.10;;;2.60;;
12363;SDS011;6246;50.826;4.712;2023-04-03T08:00:40;2.60;;;2.07;;
12363;SDS011;6246;50.826;4.712;2023-04-03T08:03:06;3.77;;;2.40;;
12363;SDS011;6246;50.826;4.712;2023-04-03T08:05:36;4.00;;;2.50;;
12363;SDS011;6246;50.826;4.712;2023-04-03T08:08:02;4.03;;;2.33;;
12363;SDS011;6246;50.826;4.712;2023-04-03T08:10:29;3.03;;;2.13;;
12363;SDS011;6246;50.826;4.712;2023-04-03T08:12:55;2.70;;;2.27;;
12363;SDS011;6246;50.826;4.712;2023-04-03T08:15:21;2.80;;;2.40;;
12363;SDS011;6246;50.826;4.712;2023-04-03T08:17:47;5.60;;;2.50;;
12363;SDS011;6246;50.826;4.712;2023-04-03T08:20:13;3.70;;;2.43;;
12363;SDS011;6246;50.826;4.712;2023-04-03T08:22:39;3.10;;;2.50;;
12363;SDS011;6246;50.826;4.712;2023-04-03T08:25:06;2.60;;;2.40;;
12363;SDS011;6246;50.826;4.712;2023-04-03T08:27:32;3.33;;;2.50;;
12363;SDS011;6246;50.826;4.712;2023-04-03T08:29:58;2.97;;;2.63;;
12363;SDS011;6246;50.826;4.712;2023-04-03T08:32:25;2.40;;;2.20;;
12363;SDS011;6246;50.826;4.712;2023-04-03T08:34:51;3.07;;;2.20;;
12363;SDS011;6246;50.826;4.712;2023-04-03T08:37:18;2.40;;;2.20;;
12363;SDS011;6246;50.826;4.712;2023-04-03T08:39:44;4.17;;;2.03;;
12363;SDS011;6246;50.826;4.712;2023-04-03T08:42:14;2.30;;;2.20;;
12363;SDS011;6246;50.826;4.712;2023-04-03T08:45:01;2.40;;;2.20;;
12363;SDS011;6246;50.826;4.712;2023-04-03T08:47:38;2.90;;;2.60;;
12363;SDS011;6246;50.826;4.712;2023-04-03T08:50:15;2.20;;;1.97;;
12363;SDS011;6246;50.826;4.712;2023-04-03T08:52:52;2.50;;;1.93;;
12363;SDS011;6246;50.826;4.712;2023-04-03T08:55:22;2.87;;;2.33;;
12363;SDS011;6246;50.826;4.712;2023-04-03T08:57:50;2.40;;;2.20;;
12363;SDS011;6246;50.826;4.712;2023-04-03T09:00:18;2.50;;;2.20;;
12363;SDS011;6246;50.826;4.712;2023-04-03T09:02:49;1.80;;;1.70;;
12363;SDS011;6246;50.826;4.712;2023-04-03T09:05:17;3.43;;;1.87;;
12363;SDS011;6246;50.826;4.712;2023-04-03T09:07:44;2.30;;;2.10;;
12363;SDS011;6246;50.826;4.712;2023-04-03T09:10:13;2.17;;;1.97;;
12363;SDS011;6246;50.826;4.712;2023-04-03T09:12:41;2.27;;;1.97;;
12363;SDS011;6246;50.826;4.712;2023-04-03T09:22:46;2.63;;;2.13;;
12363;SDS011;6246;50.826;4.712;2023-04-03T09:25:21;1.93;;;1.70;;
12363;SDS011;6246;50.826;4.712;2023-04-03T09:27:48;2.17;;;1.87;;
12363;SDS011;6246;50.826;4.712;2023-04-03T09:30:15;2.27;;;1.93;;
12363;SDS011;6246;50.826;4.712;2023-04-03T09:32:43;2.10;;;1.93;;
12363;SDS011;6246;50.826;4.712;2023-04-03T09:35:17;2.20;;;1.77;;
12363;SDS011;6246;50.826;4.712;2023-04-03T09:37:45;2.20;;;1.77;;
12363;SDS011;6246;50.826;4.712;2023-04-03T09:42:54;1.93;;;1.73;;
12363;SDS011;6246;50.826;4.712;2023-04-03T09:45:22;2.73;;;1.80;;
12363;SDS011;6246;50.826;4.712;2023-04-03T09:47:50;2.17;;;2.03;;
12363;SDS011;6246;50.826;4.712;2023-04-03T09:50:29;1.77;;;1.67;;
12363;SDS011;6246;50.826;4.712;2023-04-03T09:52:55;1.83;;;1.70;;
12363;SDS011;6246;50.826;4.712;2023-04-03T09:55:22;2.23;;;1.80;;
12363;SDS011;6246;50.826;4.712;2023-04-03T09:57:56;2.07;;;1.63;;
12363;SDS011;6246;50.826;4.712;2023-04-03T10:00:40;1.83;;;1.70;;
12363;SDS011;6246;50.826;4.712;2023-04-03T10:03:23;1.80;;;1.70;;
12363;SDS011;6246;50.826;4.712;2023-04-03T10:05:49;2.10;;;1.90;;
12363;SDS011;6246;50.826;4.712;2023-04-03T10:08:24;1.80;;;1.70;;
12363;SDS011;6246;50.826;4.712;2023-04-03T10:11:07;2.50;;;1.60;;
12363;SDS011;6246;50.826;4.712;2023-04-03T10:13:35;1.53;;;1.43;;
12363;SDS011;6246;50.826;4.712;2023-04-03T10:16:02;1.70;;;1.60;;
12363;SDS011;6246;50.826;4.712;2023-04-03T10:18:39;2.30;;;1.77;;
12363;SDS011;6246;50.826;4.712;2023-04-03T10:23:49;1.97;;;1.87;;
12363;SDS011;6246;50.826;4.712;2023-04-03T10:29:16;1.90;;;1.50;;
12363;SDS011;6246;50.826;4.712;2023-04-03T10:34:21;1.13;;;1.00;;
12363;SDS011;6246;50.826;4.712;2023-04-03T10:49:54;1.83;;;1.53;;
12363;SDS011;6246;50.826;4.712;2023-04-03T10:52:22;1.93;;;1.70;;
12363;SDS011;6246;50.826;4.712;2023-04-03T10:57:23;1.53;;;1.43;;
12363;SDS011;6246;50.826;4.712;2023-04-03T10:59:59;1.60;;;1.50;;
12363;SDS011;6246;50.826;4.712;2023-04-03T11:02:28;1.40;;;1.27;;
12363;SDS011;6246;50.826;4.712;2023-04-03T11:07:38;1.20;;;1.10;;
12363;SDS011;6246;50.826;4.712;2023-04-03T11:10:28;1.50;;;0.90;;
12363;SDS011;6246;50.826;4.712;2023-04-03T11:12:52;2.40;;;1.40;;
12363;SDS011;6246;50.826;4.712;2023-04-03T11:15:22;1.57;;;1.47;;
12363;SDS011;6246;50.826;4.712;2023-04-03T11:22:43;1.40;;;1.10;;
12363;SDS011;6246;50.826;4.712;2023-04-03T11:27:55;1.43;;;1.33;;
12363;SDS011;6246;50.826;4.712;2023-04-03T11:35:33;1.40;;;1.30;;
12363;SDS011;6246;50.826;4.712;2023-04-03T11:38:01;1.17;;;1.03;;
12363;SDS011;6246;50.826;4.712;2023-04-03T11:40:29;1.40;;;1.30;;
12363;SDS011;6246;50.826;4.712;2023-04-03T11:45:55;1.53;;;1.10;;
12363;SDS011;6246;50.826;4.712;2023-04-03T11:51:02;1.10;;;1.00;;
12363;SDS011;6246;50.826;4.712;2023-04-03T11:53:29;1.20;;;1.10;;
12363;SDS011;6246;50.826;4.712;2023-04-03T11:55:57;1.30;;;1.20;;
12363;SDS011;6246;50.826;4.712;2023-04-03T11:58:33;1.23;;;1.10;;
12363;SDS011;6246;50.826;4.712;2023-04-03T12:05:57;1.10;;;1.00;;
12363;SDS011;6246;50.826;4.712;2023-04-03T12:16:28;1.50;;;0.93;;
12363;SDS011;6246;50.826;4.712;2023-04-03T12:24:23;0.87;;;0.87;;
12363;SDS011;6246;50.826;4.712;2023-04-03T12:31:46;1.30;;;1.00;;
12363;SDS011;6246;50.826;4.712;2023-04-03T12:34:38;1.03;;;0.97;;
12363;SDS011;6246;50.826;4.712;2023-04-03T12:37:16;1.10;;;0.80;;
12363;SDS011;6246;50.826;4.712;2023-04-03T12:42:29;1.13;;;1.00;;
12363;SDS011;6246;50.826;4.712;2023-04-03T12:45:09;2.17;;;1.20;;
12363;SDS011;6246;50.826;4.712;2023-04-03T12:47:36;1.40;;;1.00;;
12363;SDS011;6246;50.826;4.712;2023-04-03T12:50:13;0.60;;;0.60;;
12363;SDS011;6246;50.826;4.712;2023-04-03T12:52:43;0.77;;;0.77;;
12363;SDS011;6246;50.826;4.712;2023-04-03T12:55:15;1.13;;;1.03;;
12363;SDS011;6246;50.826;4.712;2023-04-03T12:57:41;0.83;;;0.63;;
12363;SDS011;6246;50.826;4.712;2023-04-03T13:02:52;0.70;;;0.70;;
12363;SDS011;6246;50.826;4.712;2023-04-03T13:05:18;1.13;;;0.70;;
12363;SDS011;6246;50.826;4.712;2023-04-03T13:07:48;0.83;;;0.83;;
12363;SDS011;6246;50.826;4.712;2023-04-03T13:10:16;1.20;;;1.00;;
12363;SDS011;6246;50.826;4.712;2023-04-03T13:12:45;1.50;;;0.73;;
12363;SDS011;6246;50.826;4.712;2023-04-03T13:15:13;0.70;;;0.70;;
12363;SDS011;6246;50.826;4.712;2023-04-03T13:17:39;0.97;;;0.90;;
12363;SDS011;6246;50.826;4.712;2023-04-03T13:20:11;0.50;;;0.50;;
12363;SDS011;6246;50.826;4.712;2023-04-03T13:22:39;0.60;;;0.60;;
12363;SDS011;6246;50.826;4.712;2023-04-03T13:25:09;0.73;;;0.73;;
12363;SDS011;6246;50.826;4.712;2023-04-03T13:27:36;0.87;;;0.87;;
12363;SDS011;6246;50.826;4.712;2023-04-03T13:30:04;0.93;;;0.90;;
12363;SDS011;6246;50.826;4.712;2023-04-03T13:32:31;0.80;;;0.80;;
12363;SDS011;6246;50.826;4.712;2023-04-03T13:34:58;1.63;;;0.93;;
12363;SDS011;6246;50.826;4.712;2023-04-03T13:37:29;0.60;;;0.60;;
12363;SDS011;6246;50.826;4.712;2023-04-03T13:42:26;0.80;;;0.80;;
12363;SDS011;6246;50.826;4.712;2023-04-03T13:47:38;0.60;;;0.60;;
12363;SDS011;6246;50.826;4.712;2023-04-03T13:50:25;0.60;;;0.50;;
12363;SDS011;6246;50.826;4.712;2023-04-03T13:57:53;2.27;;;0.73;;
12363;SDS011;6246;50.826;4.712;2023-04-03T14:03:40;0.63;;;0.63;;
12363;SDS011;6246;50.826;4.712;2023-04-03T14:05:58;0.67;;;0.60;;
12363;SDS011;6246;50.826;4.712;2023-04-03T14:08:25;0.80;;;0.80;;
12363;SDS011;6246;50.826;4.712;2023-04-03T14:10:52;0.80;;;0.80;;
12363;SDS011;6246;50.826;4.712;2023-04-03T14:13:19;0.93;;;0.83;;
12363;SDS011;6246;50.826;4.712;2023-04-03T14:15:46;1.20;;;0.70;;
12363;SDS011;6246;50.826;4.712;2023-04-03T14:18:14;0.90;;;0.90;;
12363;SDS011;6246;50.826;4.712;2023-04-03T14:20:40;0.80;;;0.47;;
12363;SDS011;6246;50.826;4.712;2023-04-03T14:23:06;0.83;;;0.60;;
12363;SDS011;6246;50.826;4.712;2023-04-03T14:25:33;0.70;;;0.70;;
12363;SDS011;6246;50.826;4.712;2023-04-03T14:27:59;1.33;;;0.63;;
12363;SDS011;6246;50.826;4.712;2023-04-03T14:30:29;0.67;;;0.60;;
12363;SDS011;6246;50.826;4.712;2023-04-03T14:32:56;0.37;;;0.37;;
12363;SDS011;6246;50.826;4.712;2023-04-03T14:35:22;1.00;;;1.00;;
12363;SDS011;6246;50.826;4.712;2023-04-03T14:37:49;1.90;;;0.77;;
12363;SDS011;6246;50.826;4.712;2023-04-03T14:40:17;0.50;;;0.50;;
12363;SDS011;6246;50.826;4.712;2023-04-03T14:42:43;0.70;;;0.70;;
12363;SDS011;6246;50.826;4.712;2023-04-03T14:45:10;0.60;;;0.60;;
12363;SDS011;6246;50.826;4.712;2023-04-03T14:47:39;0.77;;;0.60;;
12363;SDS011;6246;50.826;4.712;2023-04-03T14:50:06;0.60;;;0.60;;
12363;SDS011;6246;50.826;4.712;2023-04-03T14:52:33;0.80;;;0.60;;
12363;SDS011;6246;50.826;4.712;2023-04-03T14:55:01;0.70;;;0.53;;
12363;SDS011;6246;50.826;4.712;2023-04-03T14:57:28;0.50;;;0.50;;
12363;SDS011;6246;50.826;4.712;2023-04-03T14:59:54;1.00;;;0.70;;
12363;SDS011;6246;50.826;4.712;2023-04-03T15:04:46;0.67;;;0.60;;
12363;SDS011;6246;50.826;4.712;2023-04-03T15:07:12;0.80;;;0.60;;
12363;SDS011;6246;50.826;4.712;2023-04-03T15:09:38;2.37;;;0.53;;
12363;SDS011;6246;50.826;4.712;2023-04-03T15:12:04;0.70;;;0.50;;
12363;SDS011;6246;50.826;4.712;2023-04-03T15:14:30;0.97;;;0.80;;
12363;SDS011;6246;50.826;4.712;2023-04-03T15:16:56;0.60;;;0.60;;
12363;SDS011;6246;50.826;4.712;2023-04-03T15:19:22;0.70;;;0.67;;
12363;SDS011;6246;50.826;4.712;2023-04-03T15:21:49;1.30;;;1.20;;
12363;SDS011;6246;50.826;4.712;2023-04-03T15:24:16;0.87;;;0.87;;
12363;SDS011;6246;50.826;4.712;2023-04-03T15:26:42;0.77;;;0.60;;
12363;SDS011;6246;50.826;4.712;2023-04-03T15:29:08;0.63;;;0.60;;
12363;SDS011;6246;50.826;4.712;2023-04-03T15:31:34;1.50;;;0.73;;
12363;SDS011;6246;50.826;4.712;2023-04-03T15:34:00;0.70;;;0.60;;
12363;SDS011;6246;50.826;4.712;2023-04-03T15:36:26;0.73;;;0.63;;
12363;SDS011;6246;50.826;4.712;2023-04-03T15:38:52;1.90;;;0.90;;
12363;SDS011;6246;50.826;4.712;2023-04-03T15:41:18;0.90;;;0.80;;
12363;SDS011;6246;50.826;4.712;2023-04-03T15:43:45;0.83;;;0.70;;
12363;SDS011;6246;50.826;4.712;2023-04-03T15:46:11;1.00;;;0.80;;
12363;SDS011;6246;50.826;4.712;2023-04-03T15:48:38;1.53;;;0.83;;
12363;SDS011;6246;50.826;4.712;2023-04-03T15:51:05;0.80;;;0.80;;
12363;SDS011;6246;50.826;4.712;2023-04-03T15:53:31;0.70;;;0.70;;
12363;SDS011;6246;50.826;4.712;2023-04-03T15:55:57;0.60;;;0.60;;
12363;SDS011;6246;50.826;4.712;2023-04-03T15:58:23;0.50;;;0.50;;
12363;SDS011;6246;50.826;4.712;2023-04-03T16:00:50;0.53;;;0.53;;
12363;SDS011;6246;50.826;4.712;2023-04-03T16:03:17;1.30;;;0.80;;
12363;SDS011;6246;50.826;4.712;2023-04-03T16:05:43;1.00;;;0.90;;
12363;SDS011;6246;50.826;4.712;2023-04-03T16:08:10;0.87;;;0.80;;
12363;SDS011;6246;50.826;4.712;2023-04-03T16:10:36;0.53;;;0.53;;
12363;SDS011;6246;50.826;4.712;2023-04-03T16:13:03;0.70;;;0.60;;
12363;SDS011;6246;50.826;4.712;2023-04-03T16:15:29;0.60;;;0.60;;
12363;SDS011;6246;50.826;4.712;2023-04-03T16:17:55;0.70;;;0.70;;
12363;SDS011;6246;50.826;4.712;2023-04-03T16:20:21;1.40;;;0.67;;
12363;SDS011;6246;50.826;4.712;2023-04-03T16:22:47;0.93;;;0.70;;
12363;SDS011;6246;50.826;4.712;2023-04-03T16:25:13;0.50;;;0.47;;
12363;SDS011;6246;50.826;4.712;2023-04-03T16:27:39;1.07;;;0.63;;
12363;SDS011;6246;50.826;4.712;2023-04-03T16:30:06;0.70;;;0.70;;
12363;SDS011;6246;50.826;4.712;2023-04-03T16:32:32;1.97;;;0.80;;
12363;SDS011;6246;50.826;4.712;2023-04-03T16:34:59;1.83;;;0.70;;
12363;SDS011;6246;50.826;4.712;2023-04-03T16:37:25;1.00;;;0.90;;
12363;SDS011;6246;50.826;4.712;2023-04-03T16:39:51;0.53;;;0.53;;
12363;SDS011;6246;50.826;4.712;2023-04-03T16:42:17;0.70;;;0.70;;
12363;SDS011;6246;50.826;4.712;2023-04-03T16:44:43;1.17;;;1.07;;
12363;SDS011;6246;50.826;4.712;2023-04-03T16:47:10;0.80;;;0.80;;